aviador You're here:

LFRJ Decoded Metar

LANDIVISIAU in FRANCE
Report Time2018-05-28 07:30:00
UTC Time2018-05-28 08:00:42
Flight Rules ifr IFR
Wind350° at 04 kt
W.Decomp.*RWY 08: 0.1 kt HW 4 kt LCW
W.Rank350° ranks 21
Current wind is below 350° avg. (7.7)
Visibility6000 m
Phenomena:N/A
Clouds:Overcast 006 Hf
Expected CloudBase > 400 ft AGL from Temp-Dew spread
Ceiling600 ft
Temp15°C (ISA +1)
Dew Point14°C (94% RH)
AAT14.8°C
QNH1018 hPa
Density Alt512 ft
Elevation377 ft
Report Wrong Elevation
Raw Report
METAR LFRJ 280730Z AUTO 35004KT 6000 OVC006 15/14 Q1018=

Extra information for LFRJ:More info

Metar Taf Metar & Taf Last 4 Metars F.Rules Stats Wind Profile Meteogram Temp Stats Airport Information Weather charts Add Link Nearby VenuesMetar ALERT Operation Metar Decoded Social comments